sensor_id;sensor_type;location;lat;lon;timestamp;temperature;humidity
7998;DHT22;4044;49.814;7.828;2022-09-13T00:00:04;13.20;99.90
7998;DHT22;4044;49.814;7.828;2022-09-13T00:02:31;13.20;99.90
7998;DHT22;4044;49.814;7.828;2022-09-13T00:04:57;13.20;99.90
7998;DHT22;4044;49.814;7.828;2022-09-13T00:07:22;13.20;99.90
7998;DHT22;4044;49.814;7.828;2022-09-13T00:09:48;13.20;99.90
7998;DHT22;4044;49.814;7.828;2022-09-13T00:12:14;13.20;99.90
7998;DHT22;4044;49.814;7.828;2022-09-13T00:14:40;13.10;99.90
7998;DHT22;4044;49.814;7.828;2022-09-13T00:17:05;13.10;99.90
7998;DHT22;4044;49.814;7.828;2022-09-13T00:19:31;13.10;99.90
7998;DHT22;4044;49.814;7.828;2022-09-13T00:21:56;13.10;99.90
7998;DHT22;4044;49.814;7.828;2022-09-13T00:24:22;13.00;99.90
7998;DHT22;4044;49.814;7.828;2022-09-13T00:26:47;13.00;99.90
7998;DHT22;4044;49.814;7.828;2022-09-13T00:29:13;12.90;99.90
7998;DHT22;4044;49.814;7.828;2022-09-13T00:31:39;12.90;99.90
7998;DHT22;4044;49.814;7.828;2022-09-13T00:34:04;12.90;99.90
7998;DHT22;4044;49.814;7.828;2022-09-13T00:36:30;12.90;99.90
7998;DHT22;4044;49.814;7.828;2022-09-13T00:38:55;12.90;99.90
7998;DHT22;4044;49.814;7.828;2022-09-13T00:41:21;12.90;99.90
7998;DHT22;4044;49.814;7.828;2022-09-13T00:43:55;12.80;99.90
7998;DHT22;4044;49.814;7.828;2022-09-13T00:46:42;12.70;99.90
7998;DHT22;4044;49.814;7.828;2022-09-13T00:49:13;12.70;99.90
7998;DHT22;4044;49.814;7.828;2022-09-13T00:51:44;12.70;99.90
7998;DHT22;4044;49.814;7.828;2022-09-13T00:54:11;12.70;99.90
7998;DHT22;4044;49.814;7.828;2022-09-13T00:56:43;12.60;99.90
7998;DHT22;4044;49.814;7.828;2022-09-13T00:59:16;12.60;99.90
7998;DHT22;4044;49.814;7.828;2022-09-13T01:01:48;12.60;99.90
7998;DHT22;4044;49.814;7.828;2022-09-13T01:04:17;12.60;99.90
7998;DHT22;4044;49.814;7.828;2022-09-13T01:06:44;12.60;99.90
7998;DHT22;4044;49.814;7.828;2022-09-13T01:09:11;12.70;99.90
7998;DHT22;4044;49.814;7.828;2022-09-13T01:11:50;12.70;99.90
7998;DHT22;4044;49.814;7.828;2022-09-13T01:14:21;12.70;99.90
7998;DHT22;4044;49.814;7.828;2022-09-13T01:16:48;12.60;99.90
7998;DHT22;4044;49.814;7.828;2022-09-13T01:19:14;12.50;99.90
7998;DHT22;4044;49.814;7.828;2022-09-13T01:22:13;12.40;99.90
7998;DHT22;4044;49.814;7.828;2022-09-13T01:25:05;12.50;99.90
7998;DHT22;4044;49.814;7.828;2022-09-13T01:28:04;12.50;99.90
7998;DHT22;4044;49.814;7.828;2022-09-13T01:30:51;12.50;99.90
7998;DHT22;4044;49.814;7.828;2022-09-13T01:39:16;12.30;99.90
7998;DHT22;4044;49.814;7.828;2022-09-13T01:45:17;12.30;99.90
7998;DHT22;4044;49.814;7.828;2022-09-13T01:48:02;12.30;99.90
7998;DHT22;4044;49.814;7.828;2022-09-13T01:50:45;12.30;99.90
7998;DHT22;4044;49.814;7.828;2022-09-13T01:53:24;12.40;99.90
7998;DHT22;4044;49.814;7.828;2022-09-13T01:58:34;12.50;99.90
7998;DHT22;4044;49.814;7.828;2022-09-13T02:01:15;12.50;99.90
7998;DHT22;4044;49.814;7.828;2022-09-13T02:03:56;12.50;99.90
7998;DHT22;4044;49.814;7.828;2022-09-13T02:06:31;12.60;99.90
7998;DHT22;4044;49.814;7.828;2022-09-13T02:09:02;12.70;99.90
7998;DHT22;4044;49.814;7.828;2022-09-13T02:11:30;12.70;99.90
7998;DHT22;4044;49.814;7.828;2022-09-13T02:14:14;12.80;99.90
7998;DHT22;4044;49.814;7.828;2022-09-13T02:16:56;12.90;99.90
7998;DHT22;4044;49.814;7.828;2022-09-13T02:19:40;12.90;99.90
7998;DHT22;4044;49.814;7.828;2022-09-13T02:22:11;13.00;99.90
7998;DHT22;4044;49.814;7.828;2022-09-13T02:24:41;13.00;99.90
7998;DHT22;4044;49.814;7.828;2022-09-13T02:27:12;13.00;99.90
7998;DHT22;4044;49.814;7.828;2022-09-13T02:29:42;13.10;99.90
7998;DHT22;4044;49.814;7.828;2022-09-13T02:32:15;13.10;99.90
7998;DHT22;4044;49.814;7.828;2022-09-13T02:35:04;13.10;99.90
7998;DHT22;4044;49.814;7.828;2022-09-13T02:37:33;13.20;99.90
7998;DHT22;4044;49.814;7.828;2022-09-13T02:40:07;13.20;99.90
7998;DHT22;4044;49.814;7.828;2022-09-13T02:42:42;13.30;99.90
7998;DHT22;4044;49.814;7.828;2022-09-13T02:45:10;13.40;99.90
7998;DHT22;4044;49.814;7.828;2022-09-13T02:47:49;13.40;99.90
7998;DHT22;4044;49.814;7.828;2022-09-13T02:53:29;13.50;99.90
7998;DHT22;4044;49.814;7.828;2022-09-13T02:56:22;13.50;99.90
7998;DHT22;4044;49.814;7.828;2022-09-13T03:01:22;13.50;99.90
7998;DHT22;4044;49.814;7.828;2022-09-13T03:03:51;13.50;99.90
7998;DHT22;4044;49.814;7.828;2022-09-13T03:06:24;13.50;99.90
7998;DHT22;4044;49.814;7.828;2022-09-13T03:08:51;13.50;99.90
7998;DHT22;4044;49.814;7.828;2022-09-13T03:17:29;13.50;99.90
7998;DHT22;4044;49.814;7.828;2022-09-13T03:23:09;13.60;99.90
7998;DHT22;4044;49.814;7.828;2022-09-13T03:25:58;13.60;99.90
7998;DHT22;4044;49.814;7.828;2022-09-13T03:31:18;13.60;99.90
7998;DHT22;4044;49.814;7.828;2022-09-13T03:33:58;13.60;99.90
7998;DHT22;4044;49.814;7.828;2022-09-13T03:36:34;13.60;99.90
7998;DHT22;4044;49.814;7.828;2022-09-13T03:39:08;13.70;99.90
7998;DHT22;4044;49.814;7.828;2022-09-13T03:41:40;13.70;99.90
7998;DHT22;4044;49.814;7.828;2022-09-13T03:44:09;13.70;99.90
7998;DHT22;4044;49.814;7.828;2022-09-13T03:46:40;13.70;99.90
7998;DHT22;4044;49.814;7.828;2022-09-13T03:49:15;13.70;99.90
7998;DHT22;4044;49.814;7.828;2022-09-13T03:51:44;13.70;99.90
7998;DHT22;4044;49.814;7.828;2022-09-13T03:54:15;13.70;99.90
7998;DHT22;4044;49.814;7.828;2022-09-13T03:56:41;13.70;99.90
7998;DHT22;4044;49.814;7.828;2022-09-13T03:59:07;13.70;99.90
7998;DHT22;4044;49.814;7.828;2022-09-13T04:01:32;13.70;99.90
7998;DHT22;4044;49.814;7.828;2022-09-13T04:03:57;13.60;99.90
7998;DHT22;4044;49.814;7.828;2022-09-13T04:06:23;13.50;99.90
7998;DHT22;4044;49.814;7.828;2022-09-13T04:08:49;13.40;99.90
7998;DHT22;4044;49.814;7.828;2022-09-13T04:11:14;13.40;99.90
7998;DHT22;4044;49.814;7.828;2022-09-13T04:13:40;13.40;99.90
7998;DHT22;4044;49.814;7.828;2022-09-13T04:16:06;13.40;99.90
7998;DHT22;4044;49.814;7.828;2022-09-13T04:18:32;13.50;99.90
7998;DHT22;4044;49.814;7.828;2022-09-13T04:20:59;13.40;99.90
7998;DHT22;4044;49.814;7.828;2022-09-13T04:23:27;13.40;99.90
7998;DHT22;4044;49.814;7.828;2022-09-13T04:25:53;13.50;99.90
7998;DHT22;4044;49.814;7.828;2022-09-13T04:28:20;13.60;99.90
7998;DHT22;4044;49.814;7.828;2022-09-13T04:30:47;13.60;99.90
7998;DHT22;4044;49.814;7.828;2022-09-13T04:33:13;13.70;99.90
7998;DHT22;4044;49.814;7.828;2022-09-13T04:35:39;13.70;99.90
7998;DHT22;4044;49.814;7.828;2022-09-13T04:38:05;13.70;99.90
7998;DHT22;4044;49.814;7.828;2022-09-13T04:40:31;13.80;99.90
7998;DHT22;4044;49.814;7.828;2022-09-13T04:42:56;13.70;99.90
7998;DHT22;4044;49.814;7.828;2022-09-13T04:45:22;13.70;99.90
7998;DHT22;4044;49.814;7.828;2022-09-13T04:47:52;13.80;99.90
7998;DHT22;4044;49.814;7.828;2022-09-13T04:50:22;13.90;99.90
7998;DHT22;4044;49.814;7.828;2022-09-13T04:52:48;13.90;99.90
7998;DHT22;4044;49.814;7.828;2022-09-13T04:55:14;14.00;99.90
7998;DHT22;4044;49.814;7.828;2022-09-13T04:57:40;14.10;99.90
7998;DHT22;4044;49.814;7.828;2022-09-13T05:00:07;14.10;99.90
7998;DHT22;4044;49.814;7.828;2022-09-13T05:02:33;14.10;99.90
7998;DHT22;4044;49.814;7.828;2022-09-13T05:04:58;14.20;99.90
7998;DHT22;4044;49.814;7.828;2022-09-13T05:07:24;14.20;99.90
7998;DHT22;4044;49.814;7.828;2022-09-13T05:09:49;14.20;99.90
7998;DHT22;4044;49.814;7.828;2022-09-13T05:12:15;14.20;99.90
7998;DHT22;4044;49.814;7.828;2022-09-13T05:14:40;14.20;99.90
7998;DHT22;4044;49.814;7.828;2022-09-13T05:17:06;14.10;99.90
7998;DHT22;4044;49.814;7.828;2022-09-13T05:19:31;14.10;99.90
7998;DHT22;4044;49.814;7.828;2022-09-13T05:21:57;14.10;99.90
7998;DHT22;4044;49.814;7.828;2022-09-13T05:24:22;14.10;99.90
7998;DHT22;4044;49.814;7.828;2022-09-13T05:26:48;14.10;99.90
7998;DHT22;4044;49.814;7.828;2022-09-13T05:29:14;14.20;99.90
7998;DHT22;4044;49.814;7.828;2022-09-13T05:31:41;14.20;99.90
7998;DHT22;4044;49.814;7.828;2022-09-13T05:34:09;14.30;99.90
7998;DHT22;4044;49.814;7.828;2022-09-13T05:36:35;14.40;99.90
7998;DHT22;4044;49.814;7.828;2022-09-13T05:39:01;14.50;99.90
7998;DHT22;4044;49.814;7.828;2022-09-13T05:41:27;14.60;99.90
7998;DHT22;4044;49.814;7.828;2022-09-13T05:43:52;14.60;99.90
7998;DHT22;4044;49.814;7.828;2022-09-13T05:46:20;14.70;99.90
7998;DHT22;4044;49.814;7.828;2022-09-13T05:48:46;14.70;99.90
7998;DHT22;4044;49.814;7.828;2022-09-13T05:51:20;14.80;99.90
7998;DHT22;4044;49.814;7.828;2022-09-13T05:53:48;14.80;99.90
7998;DHT22;4044;49.814;7.828;2022-09-13T05:56:16;14.90;99.90
7998;DHT22;4044;49.814;7.828;2022-09-13T05:58:44;14.90;99.90
7998;DHT22;4044;49.814;7.828;2022-09-13T06:01:11;14.90;99.90
7998;DHT22;4044;49.814;7.828;2022-09-13T06:03:37;15.00;99.90
7998;DHT22;4044;49.814;7.828;2022-09-13T06:06:03;15.10;99.90
7998;DHT22;4044;49.814;7.828;2022-09-13T06:08:30;15.20;99.90
7998;DHT22;4044;49.814;7.828;2022-09-13T06:10:58;15.10;99.90
7998;DHT22;4044;49.814;7.828;2022-09-13T06:13:24;15.20;99.90
7998;DHT22;4044;49.814;7.828;2022-09-13T06:15:51;15.20;99.90
7998;DHT22;4044;49.814;7.828;2022-09-13T06:18:17;15.30;99.90
7998;DHT22;4044;49.814;7.828;2022-09-13T06:20:43;15.40;99.90
7998;DHT22;4044;49.814;7.828;2022-09-13T06:23:09;15.40;99.90
7998;DHT22;4044;49.814;7.828;2022-09-13T06:25:34;15.40;99.90
7998;DHT22;4044;49.814;7.828;2022-09-13T06:28:00;15.40;99.90
7998;DHT22;4044;49.814;7.828;2022-09-13T06:30:25;15.40;99.90
7998;DHT22;4044;49.814;7.828;2022-09-13T06:32:51;15.50;99.90
7998;DHT22;4044;49.814;7.828;2022-09-13T06:35:17;15.60;99.90
7998;DHT22;4044;49.814;7.828;2022-09-13T06:37:42;15.70;99.90
7998;DHT22;4044;49.814;7.828;2022-09-13T06:40:08;15.70;99.90
7998;DHT22;4044;49.814;7.828;2022-09-13T06:42:35;15.80;99.90
7998;DHT22;4044;49.814;7.828;2022-09-13T06:45:01;15.80;99.90
7998;DHT22;4044;49.814;7.828;2022-09-13T06:47:27;15.80;99.90
7998;DHT22;4044;49.814;7.828;2022-09-13T06:49:52;15.80;99.90
7998;DHT22;4044;49.814;7.828;2022-09-13T06:52:18;16.00;99.90
7998;DHT22;4044;49.814;7.828;2022-09-13T06:54:43;16.10;99.90
7998;DHT22;4044;49.814;7.828;2022-09-13T06:57:09;16.20;99.90
7998;DHT22;4044;49.814;7.828;2022-09-13T06:59:34;16.20;99.90
7998;DHT22;4044;49.814;7.828;2022-09-13T07:02:00;16.20;99.90
7998;DHT22;4044;49.814;7.828;2022-09-13T07:04:25;16.30;99.90
7998;DHT22;4044;49.814;7.828;2022-09-13T07:06:56;16.50;99.90
7998;DHT22;4044;49.814;7.828;2022-09-13T07:09:22;16.60;99.90
7998;DHT22;4044;49.814;7.828;2022-09-13T07:11:50;16.80;99.90
7998;DHT22;4044;49.814;7.828;2022-09-13T07:14:19;16.90;99.90
7998;DHT22;4044;49.814;7.828;2022-09-13T07:16:45;17.00;99.90
7998;DHT22;4044;49.814;7.828;2022-09-13T07:19:16;17.20;99.90
7998;DHT22;4044;49.814;7.828;2022-09-13T07:21:42;17.10;99.90
7998;DHT22;4044;49.814;7.828;2022-09-13T07:24:09;17.10;99.90
7998;DHT22;4044;49.814;7.828;2022-09-13T07:26:34;17.20;99.90
7998;DHT22;4044;49.814;7.828;2022-09-13T07:29:05;17.30;99.90
7998;DHT22;4044;49.814;7.828;2022-09-13T07:31:34;17.30;99.90
7998;DHT22;4044;49.814;7.828;2022-09-13T07:34:02;17.40;99.90
7998;DHT22;4044;49.814;7.828;2022-09-13T07:36:30;17.40;99.90
7998;DHT22;4044;49.814;7.828;2022-09-13T07:38:57;17.60;99.90
7998;DHT22;4044;49.814;7.828;2022-09-13T07:41:25;17.70;99.90
7998;DHT22;4044;49.814;7.828;2022-09-13T07:43:51;17.80;99.90
7998;DHT22;4044;49.814;7.828;2022-09-13T07:46:22;17.90;99.90
7998;DHT22;4044;49.814;7.828;2022-09-13T07:48:48;18.00;99.90
7998;DHT22;4044;49.814;7.828;2022-09-13T07:51:18;18.10;99.90
7998;DHT22;4044;49.814;7.828;2022-09-13T07:53:47;18.30;99.90
7998;DHT22;4044;49.814;7.828;2022-09-13T07:56:15;18.40;99.90
7998;DHT22;4044;49.814;7.828;2022-09-13T07:58:43;18.60;99.90
7998;DHT22;4044;49.814;7.828;2022-09-13T08:01:17;18.70;99.90
7998;DHT22;4044;49.814;7.828;2022-09-13T08:03:44;18.80;99.90
7998;DHT22;4044;49.814;7.828;2022-09-13T08:06:14;18.90;99.90
7998;DHT22;4044;49.814;7.828;2022-09-13T08:08:40;19.00;99.90
7998;DHT22;4044;49.814;7.828;2022-09-13T08:11:06;19.00;99.90
7998;DHT22;4044;49.814;7.828;2022-09-13T08:13:32;19.00;99.90
7998;DHT22;4044;49.814;7.828;2022-09-13T08:16:03;19.00;99.90
7998;DHT22;4044;49.814;7.828;2022-09-13T08:18:29;19.20;99.90
7998;DHT22;4044;49.814;7.828;2022-09-13T08:20:56;19.00;99.90
7998;DHT22;4044;49.814;7.828;2022-09-13T08:23:22;19.20;99.90
7998;DHT22;4044;49.814;7.828;2022-09-13T08:25:47;19.20;99.90
7998;DHT22;4044;49.814;7.828;2022-09-13T08:28:15;19.20;99.90
7998;DHT22;4044;49.814;7.828;2022-09-13T08:30:41;19.30;99.90
7998;DHT22;4044;49.814;7.828;2022-09-13T08:33:08;19.30;99.90
7998;DHT22;4044;49.814;7.828;2022-09-13T08:35:34;19.50;99.90
7998;DHT22;4044;49.814;7.828;2022-09-13T08:38:00;19.60;99.90
7998;DHT22;4044;49.814;7.828;2022-09-13T08:40:29;19.70;99.90
7998;DHT22;4044;49.814;7.828;2022-09-13T08:45:54;20.00;99.90
7998;DHT22;4044;49.814;7.828;2022-09-13T08:48:33;20.20;99.90
7998;DHT22;4044;49.814;7.828;2022-09-13T08:51:03;20.20;99.90
7998;DHT22;4044;49.814;7.828;2022-09-13T08:53:31;20.50;99.90
7998;DHT22;4044;49.814;7.828;2022-09-13T08:56:06;20.50;99.90
7998;DHT22;4044;49.814;7.828;2022-09-13T08:58:43;20.60;99.90
7998;DHT22;4044;49.814;7.828;2022-09-13T09:04:16;21.10;99.90
7998;DHT22;4044;49.814;7.828;2022-09-13T09:06:45;21.20;99.90
7998;DHT22;4044;49.814;7.828;2022-09-13T09:09:20;21.40;99.90
7998;DHT22;4044;49.814;7.828;2022-09-13T09:11:57;21.60;99.90
7998;DHT22;4044;49.814;7.828;2022-09-13T09:14:26;21.80;99.90
7998;DHT22;4044;49.814;7.828;2022-09-13T09:17:01;21.90;99.90
7998;DHT22;4044;49.814;7.828;2022-09-13T09:19:35;21.90;99.90
7998;DHT22;4044;49.814;7.828;2022-09-13T09:22:04;21.80;99.00
7998;DHT22;4044;49.814;7.828;2022-09-13T09:24:34;21.70;99.70
7998;DHT22;4044;49.814;7.828;2022-09-13T09:27:11;21.80;99.00
7998;DHT22;4044;49.814;7.828;2022-09-13T09:29:38;22.10;99.20
7998;DHT22;4044;49.814;7.828;2022-09-13T09:37:35;22.20;98.90
7998;DHT22;4044;49.814;7.828;2022-09-13T09:40:04;22.50;99.10
7998;DHT22;4044;49.814;7.828;2022-09-13T09:42:43;22.50;98.30
7998;DHT22;4044;49.814;7.828;2022-09-13T09:45:30;22.70;97.90
7998;DHT22;4044;49.814;7.828;2022-09-13T09:47:59;22.80;96.80
7998;DHT22;4044;49.814;7.828;2022-09-13T09:50:29;23.00;97.50
7998;DHT22;4044;49.814;7.828;2022-09-13T09:53:12;23.20;97.10
7998;DHT22;4044;49.814;7.828;2022-09-13T09:58:44;23.20;95.90
7998;DHT22;4044;49.814;7.828;2022-09-13T10:01:28;23.00;96.90
7998;DHT22;4044;49.814;7.828;2022-09-13T10:06:39;23.40;97.70
7998;DHT22;4044;49.814;7.828;2022-09-13T10:09:13;23.60;97.00
7998;DHT22;4044;49.814;7.828;2022-09-13T10:19:39;21.90;99.90
7998;DHT22;4044;49.814;7.828;2022-09-13T10:22:10;21.50;99.90
7998;DHT22;4044;49.814;7.828;2022-09-13T10:24:36;21.40;99.90
7998;DHT22;4044;49.814;7.828;2022-09-13T10:27:02;21.60;99.90
7998;DHT22;4044;49.814;7.828;2022-09-13T10:29:32;21.30;99.90
7998;DHT22;4044;49.814;7.828;2022-09-13T10:31:57;21.20;99.90
7998;DHT22;4044;49.814;7.828;2022-09-13T10:34:34;21.00;99.90
7998;DHT22;4044;49.814;7.828;2022-09-13T10:37:12;20.80;99.90
7998;DHT22;4044;49.814;7.828;2022-09-13T10:39:58;20.90;99.90
7998;DHT22;4044;49.814;7.828;2022-09-13T10:42:26;20.80;99.90
7998;DHT22;4044;49.814;7.828;2022-09-13T10:47:30;20.90;99.90
7998;DHT22;4044;49.814;7.828;2022-09-13T10:50:20;20.90;99.90
7998;DHT22;4044;49.814;7.828;2022-09-13T10:52:50;20.90;99.90
7998;DHT22;4044;49.814;7.828;2022-09-13T10:57:47;21.10;99.90
7998;DHT22;4044;49.814;7.828;2022-09-13T11:00:15;21.10;99.90
7998;DHT22;4044;49.814;7.828;2022-09-13T11:16:53;21.60;99.90
7998;DHT22;4044;49.814;7.828;2022-09-13T11:25:00;22.20;99.90
7998;DHT22;4044;49.814;7.828;2022-09-13T11:30:09;22.40;99.90
7998;DHT22;4044;49.814;7.828;2022-09-13T11:55:31;24.10;99.90
7998;DHT22;4044;49.814;7.828;2022-09-13T11:58:00;24.50;99.90
7998;DHT22;4044;49.814;7.828;2022-09-13T12:00:40;24.90;99.90
7998;DHT22;4044;49.814;7.828;2022-09-13T12:05:55;26.20;99.90
7998;DHT22;4044;49.814;7.828;2022-09-13T12:08:29;26.60;99.40
7998;DHT22;4044;49.814;7.828;2022-09-13T12:11:04;27.20;98.50
7998;DHT22;4044;49.814;7.828;2022-09-13T12:13:42;27.70;97.90
7998;DHT22;4044;49.814;7.828;2022-09-13T12:16:16;28.10;96.80
7998;DHT22;4044;49.814;7.828;2022-09-13T12:19:10;28.10;96.10
7998;DHT22;4044;49.814;7.828;2022-09-13T12:21:40;28.00;94.30
7998;DHT22;4044;49.814;7.828;2022-09-13T12:24:28;28.10;95.00
7998;DHT22;4044;49.814;7.828;2022-09-13T12:32:06;28.30;94.00
7998;DHT22;4044;49.814;7.828;2022-09-13T12:43:10;28.90;88.00
7998;DHT22;4044;49.814;7.828;2022-09-13T12:46:08;28.60;90.10
7998;DHT22;4044;49.814;7.828;2022-09-13T12:49:01;28.20;86.40
7998;DHT22;4044;49.814;7.828;2022-09-13T12:51:58;28.60;89.80
7998;DHT22;4044;49.814;7.828;2022-09-13T12:54:43;28.80;85.20
7998;DHT22;4044;49.814;7.828;2022-09-13T12:57:33;29.10;86.30
7998;DHT22;4044;49.814;7.828;2022-09-13T13:02:59;30.20;85.50
7998;DHT22;4044;49.814;7.828;2022-09-13T13:05:37;30.70;86.80
7998;DHT22;4044;49.814;7.828;2022-09-13T13:08:14;30.80;86.70
7998;DHT22;4044;49.814;7.828;2022-09-13T13:10:42;30.70;86.40
7998;DHT22;4044;49.814;7.828;2022-09-13T13:13:20;30.80;84.80
7998;DHT22;4044;49.814;7.828;2022-09-13T13:18:28;30.60;81.70
7998;DHT22;4044;49.814;7.828;2022-09-13T13:23:37;30.40;84.40
7998;DHT22;4044;49.814;7.828;2022-09-13T13:34:03;29.50;81.80
7998;DHT22;4044;49.814;7.828;2022-09-13T13:36:52;29.50;83.40
7998;DHT22;4044;49.814;7.828;2022-09-13T14:02:33;29.20;82.90
7998;DHT22;4044;49.814;7.828;2022-09-13T14:05:41;29.10;82.60
7998;DHT22;4044;49.814;7.828;2022-09-13T14:11:06;28.90;82.10
7998;DHT22;4044;49.814;7.828;2022-09-13T14:13:47;28.80;83.40
7998;DHT22;4044;49.814;7.828;2022-09-13T14:16:46;28.60;84.30
7998;DHT22;4044;49.814;7.828;2022-09-13T14:19:28;28.30;83.60
7998;DHT22;4044;49.814;7.828;2022-09-13T14:24:46;27.80;87.10
7998;DHT22;4044;49.814;7.828;2022-09-13T14:27:19;27.50;87.00
7998;DHT22;4044;49.814;7.828;2022-09-13T14:29:53;27.20;86.80
7998;DHT22;4044;49.814;7.828;2022-09-13T14:32:41;27.00;87.30
7998;DHT22;4044;49.814;7.828;2022-09-13T14:35:25;26.90;87.60
7998;DHT22;4044;49.814;7.828;2022-09-13T14:37:51;26.80;88.80
7998;DHT22;4044;49.814;7.828;2022-09-13T14:40:25;26.70;88.30
7998;DHT22;4044;49.814;7.828;2022-09-13T14:42:53;26.60;89.40
7998;DHT22;4044;49.814;7.828;2022-09-13T14:45:23;26.50;90.00
7998;DHT22;4044;49.814;7.828;2022-09-13T14:50:36;26.40;90.10
7998;DHT22;4044;49.814;7.828;2022-09-13T14:53:12;26.40;90.00
7998;DHT22;4044;49.814;7.828;2022-09-13T14:55:42;26.30;89.90
7998;DHT22;4044;49.814;7.828;2022-09-13T14:58:16;26.20;89.10
7998;DHT22;4044;49.814;7.828;2022-09-13T15:00:54;26.10;90.00
7998;DHT22;4044;49.814;7.828;2022-09-13T15:03:21;26.10;90.50
7998;DHT22;4044;49.814;7.828;2022-09-13T15:05:58;26.00;90.70
7998;DHT22;4044;49.814;7.828;2022-09-13T15:11:01;26.00;90.80
7998;DHT22;4044;49.814;7.828;2022-09-13T15:13:27;25.80;90.70
7998;DHT22;4044;49.814;7.828;2022-09-13T15:15:52;25.80;91.10
7998;DHT22;4044;49.814;7.828;2022-09-13T15:20:49;25.70;91.00
7998;DHT22;4044;49.814;7.828;2022-09-13T15:26:06;25.50;91.00
7998;DHT22;4044;49.814;7.828;2022-09-13T15:28:56;25.40;90.90
7998;DHT22;4044;49.814;7.828;2022-09-13T15:31:29;25.30;91.70
7998;DHT22;4044;49.814;7.828;2022-09-13T15:36:48;25.30;92.00
7998;DHT22;4044;49.814;7.828;2022-09-13T15:39:19;25.20;91.80
7998;DHT22;4044;49.814;7.828;2022-09-13T15:41:53;25.10;92.00
7998;DHT22;4044;49.814;7.828;2022-09-13T15:44:21;25.00;92.20
7998;DHT22;4044;49.814;7.828;2022-09-13T15:46:55;24.90;92.20
7998;DHT22;4044;49.814;7.828;2022-09-13T15:49:23;24.80;92.10
7998;DHT22;4044;49.814;7.828;2022-09-13T15:51:53;24.80;92.00
7998;DHT22;4044;49.814;7.828;2022-09-13T15:54:19;24.70;92.40
7998;DHT22;4044;49.814;7.828;2022-09-13T15:56:48;24.70;92.20
7998;DHT22;4044;49.814;7.828;2022-09-13T15:59:17;24.60;92.10
7998;DHT22;4044;49.814;7.828;2022-09-13T16:01:43;24.60;92.20
7998;DHT22;4044;49.814;7.828;2022-09-13T16:04:10;24.60;92.50
7998;DHT22;4044;49.814;7.828;2022-09-13T16:06:36;24.60;92.60
7998;DHT22;4044;49.814;7.828;2022-09-13T16:09:20;24.50;92.60
7998;DHT22;4044;49.814;7.828;2022-09-13T16:11:46;24.40;92.50
7998;DHT22;4044;49.814;7.828;2022-09-13T16:14:13;24.20;93.00
7998;DHT22;4044;49.814;7.828;2022-09-13T16:16:39;24.10;92.90
7998;DHT22;4044;49.814;7.828;2022-09-13T16:19:05;24.10;92.90
7998;DHT22;4044;49.814;7.828;2022-09-13T16:21:30;24.00;93.20
7998;DHT22;4044;49.814;7.828;2022-09-13T16:23:56;24.00;93.30
7998;DHT22;4044;49.814;7.828;2022-09-13T16:26:21;24.00;93.30
7998;DHT22;4044;49.814;7.828;2022-09-13T16:28:47;24.00;93.10
7998;DHT22;4044;49.814;7.828;2022-09-13T16:31:12;23.90;93.50
7998;DHT22;4044;49.814;7.828;2022-09-13T16:33:41;23.80;93.70
7998;DHT22;4044;49.814;7.828;2022-09-13T16:36:11;23.80;93.60
7998;DHT22;4044;49.814;7.828;2022-09-13T16:38:37;23.70;93.60
7998;DHT22;4044;49.814;7.828;2022-09-13T16:41:06;23.60;93.90
7998;DHT22;4044;49.814;7.828;2022-09-13T16:43:32;23.60;93.90
7998;DHT22;4044;49.814;7.828;2022-09-13T16:45:59;23.50;93.80
7998;DHT22;4044;49.814;7.828;2022-09-13T16:48:29;23.50;94.10
7998;DHT22;4044;49.814;7.828;2022-09-13T16:51:18;23.40;94.00
7998;DHT22;4044;49.814;7.828;2022-09-13T16:53:44;23.40;94.00
7998;DHT22;4044;49.814;7.828;2022-09-13T16:56:12;23.40;94.20
7998;DHT22;4044;49.814;7.828;2022-09-13T16:58:39;23.30;94.50
7998;DHT22;4044;49.814;7.828;2022-09-13T17:01:06;23.20;94.70
7998;DHT22;4044;49.814;7.828;2022-09-13T17:03:32;23.20;94.70
7998;DHT22;4044;49.814;7.828;2022-09-13T17:06:02;23.10;95.60
7998;DHT22;4044;49.814;7.828;2022-09-13T17:08:29;23.00;95.80
7998;DHT22;4044;49.814;7.828;2022-09-13T17:10:54;22.90;95.70
7998;DHT22;4044;49.814;7.828;2022-09-13T17:13:20;22.90;95.70
7998;DHT22;4044;49.814;7.828;2022-09-13T17:15:46;22.80;95.70
7998;DHT22;4044;49.814;7.828;2022-09-13T17:18:11;22.70;95.80
7998;DHT22;4044;49.814;7.828;2022-09-13T17:20:45;22.60;97.20
7998;DHT22;4044;49.814;7.828;2022-09-13T17:23:11;22.50;96.80
7998;DHT22;4044;49.814;7.828;2022-09-13T17:25:40;22.40;97.60
7998;DHT22;4044;49.814;7.828;2022-09-13T17:28:07;22.20;98.10
7998;DHT22;4044;49.814;7.828;2022-09-13T17:30:33;22.10;97.70
7998;DHT22;4044;49.814;7.828;2022-09-13T17:32:58;22.00;97.90
7998;DHT22;4044;49.814;7.828;2022-09-13T17:35:24;22.00;98.10
7998;DHT22;4044;49.814;7.828;2022-09-13T17:37:50;22.00;97.70
7998;DHT22;4044;49.814;7.828;2022-09-13T17:40:15;22.00;97.80
7998;DHT22;4044;49.814;7.828;2022-09-13T17:42:41;22.00;97.70
7998;DHT22;4044;49.814;7.828;2022-09-13T17:45:06;21.90;97.90
7998;DHT22;4044;49.814;7.828;2022-09-13T17:47:32;21.90;98.10
7998;DHT22;4044;49.814;7.828;2022-09-13T17:49:58;21.80;98.40
7998;DHT22;4044;49.814;7.828;2022-09-13T17:52:23;21.80;98.50
7998;DHT22;4044;49.814;7.828;2022-09-13T17:54:49;21.70;98.50
7998;DHT22;4044;49.814;7.828;2022-09-13T17:57:14;21.60;99.60
7998;DHT22;4044;49.814;7.828;2022-09-13T17:59:40;21.50;99.40
7998;DHT22;4044;49.814;7.828;2022-09-13T18:02:05;21.50;99.90
7998;DHT22;4044;49.814;7.828;2022-09-13T18:04:31;21.30;99.90
7998;DHT22;4044;49.814;7.828;2022-09-13T18:06:57;21.30;99.90
7998;DHT22;4044;49.814;7.828;2022-09-13T18:09:22;21.20;99.90
7998;DHT22;4044;49.814;7.828;2022-09-13T18:11:49;21.10;99.90
7998;DHT22;4044;49.814;7.828;2022-09-13T18:14:16;21.00;99.90
7998;DHT22;4044;49.814;7.828;2022-09-13T18:16:42;20.90;99.90
7998;DHT22;4044;49.814;7.828;2022-09-13T18:19:08;20.90;99.90
7998;DHT22;4044;49.814;7.828;2022-09-13T18:21:34;20.90;99.90
7998;DHT22;4044;49.814;7.828;2022-09-13T18:24:00;20.80;99.90
7998;DHT22;4044;49.814;7.828;2022-09-13T18:26:27;20.70;99.90
7998;DHT22;4044;49.814;7.828;2022-09-13T18:28:54;20.70;99.90
7998;DHT22;4044;49.814;7.828;2022-09-13T18:31:21;20.70;99.90
7998;DHT22;4044;49.814;7.828;2022-09-13T18:33:47;20.70;99.90
7998;DHT22;4044;49.814;7.828;2022-09-13T18:36:18;20.70;99.90
7998;DHT22;4044;49.814;7.828;2022-09-13T18:38:47;20.70;99.90
7998;DHT22;4044;49.814;7.828;2022-09-13T18:41:14;20.70;99.90
7998;DHT22;4044;49.814;7.828;2022-09-13T18:43:42;20.70;99.90
7998;DHT22;4044;49.814;7.828;2022-09-13T18:46:13;20.70;99.90
7998;DHT22;4044;49.814;7.828;2022-09-13T18:48:41;20.60;99.90
7998;DHT22;4044;49.814;7.828;2022-09-13T18:51:11;20.60;99.90
7998;DHT22;4044;49.814;7.828;2022-09-13T18:53:37;20.50;99.90
7998;DHT22;4044;49.814;7.828;2022-09-13T18:56:05;20.50;99.90
7998;DHT22;4044;49.814;7.828;2022-09-13T18:58:36;20.40;99.90
7998;DHT22;4044;49.814;7.828;2022-09-13T19:01:08;20.30;99.90
7998;DHT22;4044;49.814;7.828;2022-09-13T19:03:34;20.40;99.90
7998;DHT22;4044;49.814;7.828;2022-09-13T19:06:30;20.40;99.90
7998;DHT22;4044;49.814;7.828;2022-09-13T19:08:57;20.50;99.90
7998;DHT22;4044;49.814;7.828;2022-09-13T19:11:25;20.40;99.90
7998;DHT22;4044;49.814;7.828;2022-09-13T19:13:51;20.40;99.90
7998;DHT22;4044;49.814;7.828;2022-09-13T19:16:18;20.40;99.90
7998;DHT22;4044;49.814;7.828;2022-09-13T19:18:46;20.40;99.90
7998;DHT22;4044;49.814;7.828;2022-09-13T19:21:21;20.40;99.90